RYR76 EPKK-LIBD
Flight info
| Callsign | RYR76 |
|---|---|
| Flight time | N/A |
| Altitude | 36000 |
| Route | BABKO M866 NIDOK DCT KREMI DCT PATAK DCT BAREB DCT NETKO DCT AIOSA DCT BANAV |
| Aircraft | B738/M-SDE2E3FGHIRWXY/LB1 |
Departure
| Time | N/A |
|---|---|
| Airport | Kraków John Paul II International Airport (EPKK) |
Arrival
| Time | 2026-05-05 17:59 |
|---|---|
| Airport | Bari Karol Wojtyła International Airport (LIBD) |
| Time | Latitude | Longitude | Altitude | Speed | Heading |
|---|---|---|---|---|---|
| 2026-05-05 17:19 | 44.05726 | 17.93578 | 36049 ft | 452 kts | 194° |
| 2026-05-05 17:20 | 43.99552 | 17.91886 | 36054 ft | 452 kts | 194° |
| 2026-05-05 17:20 | 43.93406 | 17.90205 | 36056 ft | 453 kts | 194° |
| 2026-05-05 17:21 | 43.87224 | 17.88518 | 36054 ft | 453 kts | 194° |
| 2026-05-05 17:22 | 43.78950 | 17.86266 | 36076 ft | 453 kts | 194° |
| 2026-05-05 17:22 | 43.72801 | 17.84597 | 36070 ft | 453 kts | 194° |
| 2026-05-05 17:23 | 43.66613 | 17.82920 | 36077 ft | 453 kts | 194° |
| 2026-05-05 17:23 | 43.60424 | 17.81246 | 36079 ft | 453 kts | 194° |
| 2026-05-05 17:24 | 43.54291 | 17.79598 | 36074 ft | 441 kts | 196° |
| 2026-05-05 17:24 | 43.48353 | 17.78003 | 36074 ft | 433 kts | 197° |
| 2026-05-05 17:25 | 43.42434 | 17.76405 | 36067 ft | 433 kts | 196° |
| 2026-05-05 17:25 | 43.36517 | 17.74815 | 36066 ft | 434 kts | 196° |
| 2026-05-05 17:26 | 43.30583 | 17.73225 | 36080 ft | 435 kts | 196° |
| 2026-05-05 17:26 | 43.24628 | 17.71634 | 36083 ft | 437 kts | 196° |
| 2026-05-05 17:27 | 43.18644 | 17.70039 | 36079 ft | 438 kts | 196° |
| 2026-05-05 17:27 | 43.12644 | 17.68442 | 36074 ft | 440 kts | 196° |
| 2026-05-05 17:28 | 43.06620 | 17.66842 | 36066 ft | 441 kts | 196° |
| 2026-05-05 17:28 | 43.00795 | 17.65047 | 36048 ft | 422 kts | 200° |
| 2026-05-05 17:29 | 42.95176 | 17.62895 | 36053 ft | 417 kts | 201° |
| 2026-05-05 17:29 | 42.92381 | 17.61803 | 35784 ft | 419 kts | 201° |
| 2026-05-05 17:29 | 42.89593 | 17.60723 | 35513 ft | 414 kts | 201° |
| 2026-05-05 17:29 | 42.86825 | 17.59664 | 35101 ft | 411 kts | 201° |
| 2026-05-05 17:30 | 42.84077 | 17.58622 | 34735 ft | 408 kts | 201° |
| 2026-05-05 17:30 | 42.81351 | 17.57594 | 34356 ft | 405 kts | 201° |
| 2026-05-05 17:30 | 42.78644 | 17.56576 | 33975 ft | 402 kts | 201° |
| 2026-05-05 17:30 | 42.75955 | 17.55567 | 33524 ft | 400 kts | 201° |
| 2026-05-05 17:31 | 42.73280 | 17.54564 | 33019 ft | 396 kts | 201° |
| 2026-05-05 17:31 | 42.70628 | 17.53572 | 32394 ft | 393 kts | 201° |
| 2026-05-05 17:31 | 42.67996 | 17.52588 | 31810 ft | 390 kts | 201° |
| 2026-05-05 17:31 | 42.65435 | 17.51631 | 31443 ft | 386 kts | 201° |
| 2026-05-05 17:32 | 42.62842 | 17.50662 | 31036 ft | 385 kts | 201° |
| 2026-05-05 17:32 | 42.60270 | 17.49701 | 30684 ft | 383 kts | 201° |
| 2026-05-05 17:32 | 42.57709 | 17.48746 | 30326 ft | 381 kts | 201° |
| 2026-05-05 17:32 | 42.55165 | 17.47797 | 29930 ft | 378 kts | 201° |
| 2026-05-05 17:33 | 42.52632 | 17.46854 | 29539 ft | 376 kts | 201° |
| 2026-05-05 17:33 | 42.50116 | 17.45919 | 29155 ft | 372 kts | 201° |
| 2026-05-05 17:33 | 42.47628 | 17.44995 | 28793 ft | 369 kts | 201° |
| 2026-05-05 17:33 | 42.45158 | 17.44078 | 28424 ft | 366 kts | 201° |
| 2026-05-05 17:34 | 42.42716 | 17.43172 | 28066 ft | 363 kts | 201° |
| 2026-05-05 17:34 | 42.40290 | 17.42272 | 27704 ft | 360 kts | 201° |
| 2026-05-05 17:34 | 42.37884 | 17.41381 | 27343 ft | 357 kts | 201° |
| 2026-05-05 17:34 | 42.35494 | 17.40496 | 26997 ft | 355 kts | 201° |
| 2026-05-05 17:35 | 42.33122 | 17.39618 | 26652 ft | 352 kts | 201° |
| 2026-05-05 17:35 | 42.30765 | 17.38747 | 26305 ft | 350 kts | 201° |
| 2026-05-05 17:35 | 42.28458 | 17.37894 | 25976 ft | 348 kts | 201° |
| 2026-05-05 17:35 | 42.26132 | 17.37036 | 25636 ft | 345 kts | 201° |
| 2026-05-05 17:36 | 42.23816 | 17.36181 | 25297 ft | 344 kts | 201° |
| 2026-05-05 17:36 | 42.21515 | 17.35333 | 24962 ft | 342 kts | 201° |
| 2026-05-05 17:36 | 42.19228 | 17.34490 | 24624 ft | 340 kts | 201° |
| 2026-05-05 17:36 | 42.16946 | 17.33651 | 24293 ft | 339 kts | 201° |
| 2026-05-05 17:37 | 42.14675 | 17.32815 | 23963 ft | 337 kts | 201° |
| 2026-05-05 17:37 | 42.12416 | 17.31985 | 23626 ft | 336 kts | 200° |
| 2026-05-05 17:37 | 42.10158 | 17.31156 | 23224 ft | 335 kts | 200° |
| 2026-05-05 17:37 | 42.07914 | 17.30332 | 22862 ft | 333 kts | 200° |
| 2026-05-05 17:38 | 42.05682 | 17.29514 | 22516 ft | 331 kts | 200° |
| 2026-05-05 17:38 | 42.03469 | 17.28703 | 22181 ft | 329 kts | 200° |
| 2026-05-05 17:38 | 42.01271 | 17.27898 | 21854 ft | 326 kts | 200° |
| 2026-05-05 17:38 | 41.99088 | 17.27100 | 21536 ft | 324 kts | 200° |
| 2026-05-05 17:39 | 41.96920 | 17.26307 | 21212 ft | 322 kts | 200° |
| 2026-05-05 17:39 | 41.94770 | 17.25516 | 20900 ft | 319 kts | 202° |
| 2026-05-05 17:39 | 41.92760 | 17.24365 | 20582 ft | 310 kts | 214° |
| 2026-05-05 17:39 | 41.91001 | 17.22741 | 20253 ft | 304 kts | 225° |
| 2026-05-05 17:40 | 41.89441 | 17.20902 | 19948 ft | 301 kts | 226° |
| 2026-05-05 17:40 | 41.87889 | 17.19021 | 19635 ft | 300 kts | 226° |
| 2026-05-05 17:40 | 41.86346 | 17.17147 | 19327 ft | 299 kts | 226° |
| 2026-05-05 17:40 | 41.84803 | 17.15286 | 19002 ft | 298 kts | 225° |
| 2026-05-05 17:41 | 41.83264 | 17.13438 | 18716 ft | 296 kts | 225° |
| 2026-05-05 17:41 | 41.81728 | 17.11601 | 18412 ft | 295 kts | 225° |
| 2026-05-05 17:41 | 41.80196 | 17.09773 | 18076 ft | 295 kts | 225° |
| 2026-05-05 17:41 | 41.78666 | 17.07950 | 17747 ft | 293 kts | 225° |
| 2026-05-05 17:42 | 41.77145 | 17.06142 | 17422 ft | 292 kts | 225° |
| 2026-05-05 17:42 | 41.75631 | 17.04345 | 17113 ft | 290 kts | 225° |
| 2026-05-05 17:42 | 41.74124 | 17.02558 | 16809 ft | 288 kts | 224° |
| 2026-05-05 17:42 | 41.72467 | 17.01030 | 16494 ft | 291 kts | 209° |
| 2026-05-05 17:43 | 41.70560 | 17.00102 | 16197 ft | 292 kts | 200° |
| 2026-05-05 17:43 | 41.68600 | 16.99371 | 15890 ft | 292 kts | 199° |
| 2026-05-05 17:43 | 41.66640 | 16.98664 | 15581 ft | 291 kts | 199° |
| 2026-05-05 17:43 | 41.64690 | 16.97954 | 15287 ft | 290 kts | 199° |
| 2026-05-05 17:44 | 41.62773 | 16.97246 | 14995 ft | 289 kts | 199° |
| 2026-05-05 17:44 | 41.60819 | 16.96515 | 14697 ft | 287 kts | 199° |
| 2026-05-05 17:44 | 41.58896 | 16.95792 | 14405 ft | 287 kts | 199° |
| 2026-05-05 17:44 | 41.57007 | 16.95079 | 14118 ft | 286 kts | 199° |
| 2026-05-05 17:45 | 41.55532 | 16.94521 | 13903 ft | 285 kts | 199° |
| 2026-05-05 17:45 | 41.53625 | 16.93801 | 13579 ft | 284 kts | 199° |
| 2026-05-05 17:45 | 41.51739 | 16.93022 | 13256 ft | 283 kts | 203° |
| 2026-05-05 17:45 | 41.49899 | 16.92119 | 12950 ft | 281 kts | 204° |
| 2026-05-05 17:46 | 41.48078 | 16.91191 | 12651 ft | 280 kts | 204° |
| 2026-05-05 17:46 | 41.46265 | 16.90269 | 12360 ft | 278 kts | 204° |
| 2026-05-05 17:46 | 41.44462 | 16.89358 | 12075 ft | 277 kts | 204° |
| 2026-05-05 17:46 | 41.42662 | 16.88454 | 11793 ft | 275 kts | 204° |
| 2026-05-05 17:47 | 41.40873 | 16.87560 | 11511 ft | 274 kts | 204° |
| 2026-05-05 17:47 | 41.39094 | 16.86674 | 11237 ft | 273 kts | 204° |
| 2026-05-05 17:47 | 41.37317 | 16.85790 | 10960 ft | 272 kts | 204° |
| 2026-05-05 17:47 | 41.35551 | 16.84914 | 10686 ft | 270 kts | 204° |
| 2026-05-05 17:48 | 41.33790 | 16.84041 | 10419 ft | 269 kts | 204° |
| 2026-05-05 17:48 | 41.32037 | 16.83174 | 10177 ft | 267 kts | 204° |
| 2026-05-05 17:48 | 41.30328 | 16.82320 | 10071 ft | 258 kts | 207° |
| 2026-05-05 17:48 | 41.28906 | 16.80948 | 9775 ft | 251 kts | 232° |
| 2026-05-05 17:49 | 41.27919 | 16.79068 | 9529 ft | 248 kts | 241° |
| 2026-05-05 17:49 | 41.27045 | 16.77067 | 9266 ft | 252 kts | 242° |
| 2026-05-05 17:49 | 41.26168 | 16.75014 | 9003 ft | 259 kts | 242° |
| 2026-05-05 17:49 | 41.25265 | 16.72919 | 8729 ft | 264 kts | 242° |
| 2026-05-05 17:50 | 41.24343 | 16.70809 | 8420 ft | 263 kts | 241° |
| 2026-05-05 17:50 | 41.23431 | 16.68743 | 8148 ft | 262 kts | 241° |
| 2026-05-05 17:50 | 41.22511 | 16.66672 | 7959 ft | 257 kts | 241° |
| 2026-05-05 17:50 | 41.21612 | 16.64656 | 7836 ft | 250 kts | 241° |
| 2026-05-05 17:51 | 41.20744 | 16.62690 | 7691 ft | 244 kts | 243° |
| 2026-05-05 17:51 | 41.20070 | 16.60631 | 7420 ft | 243 kts | 250° |
| 2026-05-05 17:51 | 41.19496 | 16.58527 | 7165 ft | 242 kts | 251° |
| 2026-05-05 17:51 | 41.18927 | 16.56427 | 6910 ft | 241 kts | 251° |
| 2026-05-05 17:52 | 41.18350 | 16.54334 | 6651 ft | 241 kts | 250° |
| 2026-05-05 17:52 | 41.17764 | 16.52250 | 6380 ft | 241 kts | 250° |
| 2026-05-05 17:52 | 41.17174 | 16.50175 | 6173 ft | 237 kts | 250° |
| 2026-05-05 17:52 | 41.16598 | 16.48157 | 6055 ft | 230 kts | 250° |
| 2026-05-05 17:53 | 41.16035 | 16.46190 | 5859 ft | 227 kts | 250° |
| 2026-05-05 17:53 | 41.15270 | 16.44383 | 5600 ft | 227 kts | 225° |
| 2026-05-05 17:53 | 41.13916 | 16.43362 | 5351 ft | 228 kts | 194° |
| 2026-05-05 17:53 | 41.12332 | 16.43355 | 5070 ft | 231 kts | 168° |
| 2026-05-05 17:54 | 41.10805 | 16.44008 | 4837 ft | 231 kts | 161° |
| 2026-05-05 17:54 | 41.09307 | 16.44773 | 4565 ft | 231 kts | 161° |
| 2026-05-05 17:54 | 41.07824 | 16.45580 | 4296 ft | 231 kts | 152° |
| 2026-05-05 17:54 | 41.06687 | 16.47064 | 4037 ft | 233 kts | 119° |
| 2026-05-05 17:55 | 41.06330 | 16.49108 | 3822 ft | 228 kts | 86° |
| 2026-05-05 17:55 | 41.06683 | 16.51113 | 3606 ft | 220 kts | 71° |
| 2026-05-05 17:55 | 41.07217 | 16.52978 | 3388 ft | 213 kts | 69° |
| 2026-05-05 17:55 | 41.07753 | 16.54773 | 3145 ft | 206 kts | 70° |
| 2026-05-05 17:56 | 41.08259 | 16.56478 | 2999 ft | 189 kts | 70° |
| 2026-05-05 17:56 | 41.08715 | 16.58036 | 2971 ft | 178 kts | 70° |
| 2026-05-05 17:56 | 41.09188 | 16.59576 | 2725 ft | 189 kts | 69° |
| 2026-05-05 17:56 | 41.09667 | 16.61191 | 2334 ft | 187 kts | 70° |
| 2026-05-05 17:57 | 41.10109 | 16.62756 | 2018 ft | 175 kts | 71° |
| 2026-05-05 17:57 | 41.10520 | 16.64219 | 1791 ft | 163 kts | 72° |
| 2026-05-05 17:57 | 41.10908 | 16.65604 | 1597 ft | 161 kts | 71° |
| 2026-05-05 17:57 | 41.11296 | 16.66988 | 1422 ft | 156 kts | 71° |
| 2026-05-05 17:58 | 41.11633 | 16.68202 | 1298 ft | 153 kts | 72° |
| 2026-05-05 17:58 | 41.11996 | 16.69520 | 1120 ft | 155 kts | 71° |
| 2026-05-05 17:58 | 41.12381 | 16.70874 | 903 ft | 157 kts | 71° |
| 2026-05-05 17:58 | 41.12766 | 16.72203 | 583 ft | 154 kts | 70° |
| 2026-05-05 17:59 | 41.13125 | 16.73484 | 346 ft | 143 kts | 69° |
| 2026-05-05 17:59 | 41.13471 | 16.74715 | 201 ft | 143 kts | 71° |
| 2026-05-05 17:59 | 41.13792 | 16.75856 | 151 ft | 113 kts | 69° |
| 2026-05-05 17:59 | 41.13993 | 16.76554 | 148 ft | 34 kts | 69° |
| 2026-05-05 18:00 | 41.13980 | 16.76700 | 150 ft | 8 kts | 124° |
| 2026-05-05 18:00 | 41.13936 | 16.76718 | 154 ft | 7 kts | 209° |
| 2026-05-05 18:00 | 41.13897 | 16.76683 | 155 ft | 7 kts | 213° |
| 2026-05-05 18:00 | 41.13860 | 16.76649 | 156 ft | 6 kts | 216° |
| 2026-05-05 18:01 | 41.13826 | 16.76610 | 157 ft | 6 kts | 233° |
| 2026-05-05 18:01 | 41.13799 | 16.76563 | 157 ft | 7 kts | 213° |
| 2026-05-05 18:01 | 41.13750 | 16.76562 | 157 ft | 7 kts | 167° |
| 2026-05-05 18:01 | 41.13703 | 16.76550 | 157 ft | 7 kts | 202° |
| 2026-05-05 18:02 | 41.13658 | 16.76518 | 158 ft | 8 kts | 225° |
| 2026-05-05 18:02 | 41.13634 | 16.76452 | 158 ft | 8 kts | 248° |
| 2026-05-05 18:02 | 41.13613 | 16.76379 | 158 ft | 9 kts | 250° |
| 2026-05-05 18:02 | 41.13599 | 16.76328 | 158 ft | 4 kts | 250° |
| 2026-05-05 18:03 | 41.13577 | 16.76319 | 158 ft | 4 kts | 167° |
| 2026-05-05 18:03 | 41.13553 | 16.76331 | 158 ft | 4 kts | 159° |
| 2026-05-05 18:03 | 41.13530 | 16.76343 | 158 ft | 3 kts | 159° |
| 2026-05-05 18:03 | 41.13529 | 16.76343 | 158 ft | 1 kts | 159° |
| 2026-05-05 18:04 | 41.13525 | 16.76345 | 158 ft | 0 kts | 159° |